sensor_id;sensor_type;location;lat;lon;timestamp;temperature;humidity
35445;DHT22;21562;49.476;6.086;2023-01-13T00:00:58;10.10;99.90
35445;DHT22;21562;49.476;6.086;2023-01-13T00:03:24;10.10;99.90
35445;DHT22;21562;49.476;6.086;2023-01-13T00:05:50;10.20;99.90
35445;DHT22;21562;49.476;6.086;2023-01-13T00:08:15;10.30;99.90
35445;DHT22;21562;49.476;6.086;2023-01-13T00:10:46;10.20;99.90
35445;DHT22;21562;49.476;6.086;2023-01-13T00:13:13;10.10;99.90
35445;DHT22;21562;49.476;6.086;2023-01-13T00:15:38;10.10;99.90
35445;DHT22;21562;49.476;6.086;2023-01-13T00:18:04;10.10;99.90
35445;DHT22;21562;49.476;6.086;2023-01-13T00:20:30;10.10;99.90
35445;DHT22;21562;49.476;6.086;2023-01-13T00:22:55;10.10;99.90
35445;DHT22;21562;49.476;6.086;2023-01-13T00:25:23;10.10;99.90
35445;DHT22;21562;49.476;6.086;2023-01-13T00:27:48;10.10;99.90
35445;DHT22;21562;49.476;6.086;2023-01-13T00:30:14;10.10;99.90
35445;DHT22;21562;49.476;6.086;2023-01-13T00:32:40;10.30;99.90
35445;DHT22;21562;49.476;6.086;2023-01-13T00:35:06;10.50;99.90
35445;DHT22;21562;49.476;6.086;2023-01-13T00:37:35;10.20;99.90
35445;DHT22;21562;49.476;6.086;2023-01-13T00:40:02;10.20;99.90
35445;DHT22;21562;49.476;6.086;2023-01-13T00:42:28;10.20;99.90
35445;DHT22;21562;49.476;6.086;2023-01-13T00:45:12;10.10;99.90
35445;DHT22;21562;49.476;6.086;2023-01-13T00:47:38;10.20;99.90
35445;DHT22;21562;49.476;6.086;2023-01-13T00:50:04;10.10;99.90
35445;DHT22;21562;49.476;6.086;2023-01-13T00:52:31;10.10;99.90
35445;DHT22;21562;49.476;6.086;2023-01-13T00:54:57;10.10;99.90
35445;DHT22;21562;49.476;6.086;2023-01-13T00:57:23;10.10;99.90
35445;DHT22;21562;49.476;6.086;2023-01-13T00:59:48;10.10;99.90
35445;DHT22;21562;49.476;6.086;2023-01-13T01:02:14;10.10;99.90
35445;DHT22;21562;49.476;6.086;2023-01-13T01:04:40;10.20;99.90
35445;DHT22;21562;49.476;6.086;2023-01-13T01:07:06;10.40;99.90
35445;DHT22;21562;49.476;6.086;2023-01-13T01:09:32;10.40;99.90
35445;DHT22;21562;49.476;6.086;2023-01-13T01:11:59;10.30;99.90
35445;DHT22;21562;49.476;6.086;2023-01-13T01:14:25;10.20;99.90
35445;DHT22;21562;49.476;6.086;2023-01-13T01:16:52;10.20;99.90
35445;DHT22;21562;49.476;6.086;2023-01-13T01:19:19;10.20;99.90
35445;DHT22;21562;49.476;6.086;2023-01-13T01:21:44;10.40;99.90
35445;DHT22;21562;49.476;6.086;2023-01-13T01:24:10;10.30;99.90
35445;DHT22;21562;49.476;6.086;2023-01-13T01:26:36;10.30;99.90
35445;DHT22;21562;49.476;6.086;2023-01-13T01:29:01;10.20;99.90
35445;DHT22;21562;49.476;6.086;2023-01-13T01:31:30;10.10;99.90
35445;DHT22;21562;49.476;6.086;2023-01-13T01:33:57;10.30;99.90
35445;DHT22;21562;49.476;6.086;2023-01-13T01:36:24;10.20;99.90
35445;DHT22;21562;49.476;6.086;2023-01-13T01:38:58;10.20;99.90
35445;DHT22;21562;49.476;6.086;2023-01-13T01:41:27;10.30;99.90
35445;DHT22;21562;49.476;6.086;2023-01-13T01:44:48;10.10;99.90
35445;DHT22;21562;49.476;6.086;2023-01-13T01:46:54;10.20;99.90
35445;DHT22;21562;49.476;6.086;2023-01-13T01:49:29;10.10;99.90
35445;DHT22;21562;49.476;6.086;2023-01-13T01:57:10;10.10;99.90
35445;DHT22;21562;49.476;6.086;2023-01-13T01:59:38;10.10;99.90
35445;DHT22;21562;49.476;6.086;2023-01-13T02:02:04;10.20;99.90
35445;DHT22;21562;49.476;6.086;2023-01-13T02:04:33;10.30;99.90
35445;DHT22;21562;49.476;6.086;2023-01-13T02:07:00;10.20;99.90
35445;DHT22;21562;49.476;6.086;2023-01-13T02:09:27;10.20;99.90
35445;DHT22;21562;49.476;6.086;2023-01-13T02:11:53;10.10;99.90
35445;DHT22;21562;49.476;6.086;2023-01-13T02:14:37;10.10;99.90
35445;DHT22;21562;49.476;6.086;2023-01-13T02:25:10;10.30;99.90
35445;DHT22;21562;49.476;6.086;2023-01-13T02:36:17;10.30;99.90
35445;DHT22;21562;49.476;6.086;2023-01-13T02:41:21;10.30;99.90
35445;DHT22;21562;49.476;6.086;2023-01-13T02:44:09;10.30;99.90
35445;DHT22;21562;49.476;6.086;2023-01-13T02:49:18;10.20;99.90
35445;DHT22;21562;49.476;6.086;2023-01-13T02:51:47;10.30;99.90
35445;DHT22;21562;49.476;6.086;2023-01-13T02:54:18;10.30;99.90
35445;DHT22;21562;49.476;6.086;2023-01-13T02:56:48;10.40;99.90
35445;DHT22;21562;49.476;6.086;2023-01-13T02:59:16;10.30;99.90
35445;DHT22;21562;49.476;6.086;2023-01-13T03:01:42;10.20;99.90
35445;DHT22;21562;49.476;6.086;2023-01-13T03:07:13;10.40;99.90
35445;DHT22;21562;49.476;6.086;2023-01-13T03:09:47;10.30;99.90
35445;DHT22;21562;49.476;6.086;2023-01-13T03:12:32;10.30;99.90
35445;DHT22;21562;49.476;6.086;2023-01-13T03:15:12;10.30;99.90
35445;DHT22;21562;49.476;6.086;2023-01-13T03:20:24;10.20;99.90
35445;DHT22;21562;49.476;6.086;2023-01-13T03:25:36;10.30;99.90
35445;DHT22;21562;49.476;6.086;2023-01-13T03:28:18;10.30;99.90
35445;DHT22;21562;49.476;6.086;2023-01-13T03:30:52;10.30;99.90
35445;DHT22;21562;49.476;6.086;2023-01-13T03:35:50;10.40;99.90
35445;DHT22;21562;49.476;6.086;2023-01-13T03:38:23;9.90;99.90
35445;DHT22;21562;49.476;6.086;2023-01-13T03:40:55;9.40;99.90
35445;DHT22;21562;49.476;6.086;2023-01-13T03:43:33;9.30;99.90
35445;DHT22;21562;49.476;6.086;2023-01-13T03:49:21;9.30;99.90
35445;DHT22;21562;49.476;6.086;2023-01-13T03:51:54;9.40;99.90
35445;DHT22;21562;49.476;6.086;2023-01-13T03:54:21;9.40;99.90
35445;DHT22;21562;49.476;6.086;2023-01-13T03:56:59;9.40;99.90
35445;DHT22;21562;49.476;6.086;2023-01-13T03:59:30;9.50;99.90
35445;DHT22;21562;49.476;6.086;2023-01-13T04:02:24;9.30;99.90
35445;DHT22;21562;49.476;6.086;2023-01-13T04:04:54;9.20;99.90
35445;DHT22;21562;49.476;6.086;2023-01-13T04:07:46;9.40;99.90
35445;DHT22;21562;49.476;6.086;2023-01-13T04:10:17;9.40;99.90
35445;DHT22;21562;49.476;6.086;2023-01-13T04:12:52;9.40;99.90
35445;DHT22;21562;49.476;6.086;2023-01-13T04:15:29;9.40;99.90
35445;DHT22;21562;49.476;6.086;2023-01-13T04:18:20;9.10;99.90
35445;DHT22;21562;49.476;6.086;2023-01-13T04:20:48;9.10;99.90
35445;DHT22;21562;49.476;6.086;2023-01-13T04:23:14;9.00;99.90
35445;DHT22;21562;49.476;6.086;2023-01-13T04:25:41;9.10;99.90
35445;DHT22;21562;49.476;6.086;2023-01-13T04:28:07;8.80;99.90
35445;DHT22;21562;49.476;6.086;2023-01-13T04:30:34;8.70;99.90
35445;DHT22;21562;49.476;6.086;2023-01-13T04:33:00;8.80;99.90
35445;DHT22;21562;49.476;6.086;2023-01-13T04:35:26;8.70;99.90
35445;DHT22;21562;49.476;6.086;2023-01-13T04:37:52;8.50;99.90
35445;DHT22;21562;49.476;6.086;2023-01-13T04:40:17;8.70;99.90
35445;DHT22;21562;49.476;6.086;2023-01-13T04:42:44;8.60;99.90
35445;DHT22;21562;49.476;6.086;2023-01-13T04:45:10;8.70;99.90
35445;DHT22;21562;49.476;6.086;2023-01-13T04:47:37;8.80;99.90
35445;DHT22;21562;49.476;6.086;2023-01-13T04:50:03;8.70;99.90
35445;DHT22;21562;49.476;6.086;2023-01-13T04:52:29;8.60;99.90
35445;DHT22;21562;49.476;6.086;2023-01-13T04:54:55;8.50;99.90
35445;DHT22;21562;49.476;6.086;2023-01-13T04:57:20;8.40;99.90
35445;DHT22;21562;49.476;6.086;2023-01-13T04:59:46;8.40;99.90
35445;DHT22;21562;49.476;6.086;2023-01-13T05:02:11;8.40;99.90
35445;DHT22;21562;49.476;6.086;2023-01-13T05:04:44;8.50;99.90
35445;DHT22;21562;49.476;6.086;2023-01-13T05:07:10;8.60;99.90
35445;DHT22;21562;49.476;6.086;2023-01-13T05:09:36;8.70;99.90
35445;DHT22;21562;49.476;6.086;2023-01-13T05:12:02;8.50;99.90
35445;DHT22;21562;49.476;6.086;2023-01-13T05:14:46;8.50;99.90
35445;DHT22;21562;49.476;6.086;2023-01-13T05:17:31;8.50;99.90
35445;DHT22;21562;49.476;6.086;2023-01-13T05:19:57;8.70;99.90
35445;DHT22;21562;49.476;6.086;2023-01-13T05:22:22;8.80;99.90
35445;DHT22;21562;49.476;6.086;2023-01-13T05:25:10;8.80;99.90
35445;DHT22;21562;49.476;6.086;2023-01-13T05:27:57;8.90;99.90
35445;DHT22;21562;49.476;6.086;2023-01-13T05:30:26;8.60;99.90
35445;DHT22;21562;49.476;6.086;2023-01-13T05:32:53;8.50;99.90
35445;DHT22;21562;49.476;6.086;2023-01-13T05:35:19;8.50;99.90
35445;DHT22;21562;49.476;6.086;2023-01-13T05:37:45;8.50;99.90
35445;DHT22;21562;49.476;6.086;2023-01-13T05:40:14;8.50;99.90
35445;DHT22;21562;49.476;6.086;2023-01-13T05:48:15;8.50;99.90
35445;DHT22;21562;49.476;6.086;2023-01-13T05:50:41;8.50;99.90
35445;DHT22;21562;49.476;6.086;2023-01-13T05:53:07;8.50;99.90
35445;DHT22;21562;49.476;6.086;2023-01-13T05:55:33;8.50;99.90
35445;DHT22;21562;49.476;6.086;2023-01-13T05:57:58;8.50;99.90
35445;DHT22;21562;49.476;6.086;2023-01-13T06:00:24;8.60;99.90
35445;DHT22;21562;49.476;6.086;2023-01-13T06:02:51;8.50;99.90
35445;DHT22;21562;49.476;6.086;2023-01-13T06:05:16;8.40;99.90
35445;DHT22;21562;49.476;6.086;2023-01-13T06:07:42;8.50;99.90
35445;DHT22;21562;49.476;6.086;2023-01-13T06:10:08;8.60;99.90
35445;DHT22;21562;49.476;6.086;2023-01-13T06:12:34;8.50;99.90
35445;DHT22;21562;49.476;6.086;2023-01-13T06:15:00;8.40;99.90
35445;DHT22;21562;49.476;6.086;2023-01-13T06:17:25;8.40;99.90
35445;DHT22;21562;49.476;6.086;2023-01-13T06:19:51;8.50;99.90
35445;DHT22;21562;49.476;6.086;2023-01-13T06:22:26;8.50;99.90
35445;DHT22;21562;49.476;6.086;2023-01-13T06:24:53;8.40;99.90
35445;DHT22;21562;49.476;6.086;2023-01-13T06:27:20;8.50;99.90
35445;DHT22;21562;49.476;6.086;2023-01-13T06:29:46;8.50;99.90
35445;DHT22;21562;49.476;6.086;2023-01-13T06:34:43;8.50;99.90
35445;DHT22;21562;49.476;6.086;2023-01-13T06:37:11;8.50;99.90
35445;DHT22;21562;49.476;6.086;2023-01-13T06:39:37;8.60;99.90
35445;DHT22;21562;49.476;6.086;2023-01-13T06:42:03;8.70;99.90
35445;DHT22;21562;49.476;6.086;2023-01-13T06:44:48;8.60;99.90
35445;DHT22;21562;49.476;6.086;2023-01-13T06:47:14;8.60;99.90
35445;DHT22;21562;49.476;6.086;2023-01-13T06:49:40;8.60;99.90
35445;DHT22;21562;49.476;6.086;2023-01-13T06:52:05;8.70;99.90
35445;DHT22;21562;49.476;6.086;2023-01-13T06:54:31;8.70;99.90
35445;DHT22;21562;49.476;6.086;2023-01-13T06:56:59;8.70;99.90
35445;DHT22;21562;49.476;6.086;2023-01-13T06:59:25;8.70;99.90
35445;DHT22;21562;49.476;6.086;2023-01-13T07:01:51;8.70;99.90
35445;DHT22;21562;49.476;6.086;2023-01-13T07:04:17;8.70;99.90
35445;DHT22;21562;49.476;6.086;2023-01-13T07:06:43;8.70;99.90
35445;DHT22;21562;49.476;6.086;2023-01-13T07:09:09;8.70;99.90
35445;DHT22;21562;49.476;6.086;2023-01-13T07:11:35;8.60;99.90
35445;DHT22;21562;49.476;6.086;2023-01-13T07:14:00;8.50;99.90
35445;DHT22;21562;49.476;6.086;2023-01-13T07:16:44;8.50;99.90
35445;DHT22;21562;49.476;6.086;2023-01-13T07:19:10;8.50;99.90
35445;DHT22;21562;49.476;6.086;2023-01-13T07:21:36;8.70;99.90
35445;DHT22;21562;49.476;6.086;2023-01-13T07:24:02;8.60;99.90
35445;DHT22;21562;49.476;6.086;2023-01-13T07:26:28;8.60;99.90
35445;DHT22;21562;49.476;6.086;2023-01-13T07:28:53;8.60;99.90
35445;DHT22;21562;49.476;6.086;2023-01-13T07:31:20;8.60;99.90
35445;DHT22;21562;49.476;6.086;2023-01-13T07:33:46;8.60;99.90
35445;DHT22;21562;49.476;6.086;2023-01-13T07:36:13;8.60;99.90
35445;DHT22;21562;49.476;6.086;2023-01-13T07:38:39;8.60;99.90
35445;DHT22;21562;49.476;6.086;2023-01-13T07:41:05;8.60;99.90
35445;DHT22;21562;49.476;6.086;2023-01-13T07:43:50;8.70;99.90
35445;DHT22;21562;49.476;6.086;2023-01-13T07:46:16;8.50;99.90
35445;DHT22;21562;49.476;6.086;2023-01-13T07:48:43;8.60;99.90
35445;DHT22;21562;49.476;6.086;2023-01-13T07:51:10;8.50;99.90
35445;DHT22;21562;49.476;6.086;2023-01-13T07:53:37;8.50;99.90
35445;DHT22;21562;49.476;6.086;2023-01-13T07:56:05;8.60;99.90
35445;DHT22;21562;49.476;6.086;2023-01-13T07:58:32;8.70;99.90
35445;DHT22;21562;49.476;6.086;2023-01-13T08:00:58;8.70;99.90
35445;DHT22;21562;49.476;6.086;2023-01-13T08:03:24;8.60;99.90
35445;DHT22;21562;49.476;6.086;2023-01-13T08:05:50;8.50;99.90
35445;DHT22;21562;49.476;6.086;2023-01-13T08:08:16;8.40;99.90
35445;DHT22;21562;49.476;6.086;2023-01-13T08:10:42;8.30;99.90
35445;DHT22;21562;49.476;6.086;2023-01-13T08:13:16;8.40;99.90
35445;DHT22;21562;49.476;6.086;2023-01-13T08:15:53;8.40;99.90
35445;DHT22;21562;49.476;6.086;2023-01-13T08:18:22;8.40;99.90
35445;DHT22;21562;49.476;6.086;2023-01-13T08:20:49;8.50;99.90
35445;DHT22;21562;49.476;6.086;2023-01-13T08:23:20;8.60;99.90
35445;DHT22;21562;49.476;6.086;2023-01-13T08:25:47;8.70;99.90
35445;DHT22;21562;49.476;6.086;2023-01-13T08:28:13;8.60;99.90
35445;DHT22;21562;49.476;6.086;2023-01-13T08:30:39;8.60;99.90
35445;DHT22;21562;49.476;6.086;2023-01-13T08:33:06;8.50;99.90
35445;DHT22;21562;49.476;6.086;2023-01-13T08:35:34;8.40;99.90
35445;DHT22;21562;49.476;6.086;2023-01-13T08:38:00;8.50;99.90
35445;DHT22;21562;49.476;6.086;2023-01-13T08:40:25;8.60;99.90
35445;DHT22;21562;49.476;6.086;2023-01-13T08:42:51;8.70;99.90
35445;DHT22;21562;49.476;6.086;2023-01-13T08:45:19;8.60;99.90
35445;DHT22;21562;49.476;6.086;2023-01-13T08:47:45;8.70;99.90
35445;DHT22;21562;49.476;6.086;2023-01-13T08:50:11;8.50;99.90
35445;DHT22;21562;49.476;6.086;2023-01-13T08:52:38;8.50;99.90
35445;DHT22;21562;49.476;6.086;2023-01-13T08:55:05;8.40;99.90
35445;DHT22;21562;49.476;6.086;2023-01-13T08:57:31;8.60;99.90
35445;DHT22;21562;49.476;6.086;2023-01-13T08:59:56;8.80;99.90
35445;DHT22;21562;49.476;6.086;2023-01-13T09:02:23;8.80;99.90
35445;DHT22;21562;49.476;6.086;2023-01-13T09:04:50;8.80;99.90
35445;DHT22;21562;49.476;6.086;2023-01-13T09:07:16;8.70;99.90
35445;DHT22;21562;49.476;6.086;2023-01-13T09:09:42;8.70;99.90
35445;DHT22;21562;49.476;6.086;2023-01-13T09:12:13;8.80;99.90
35445;DHT22;21562;49.476;6.086;2023-01-13T09:14:57;8.80;99.90
35445;DHT22;21562;49.476;6.086;2023-01-13T09:17:23;8.90;99.90
35445;DHT22;21562;49.476;6.086;2023-01-13T09:19:49;9.00;99.90
35445;DHT22;21562;49.476;6.086;2023-01-13T09:22:16;8.90;99.90
35445;DHT22;21562;49.476;6.086;2023-01-13T09:24:43;8.80;99.90
35445;DHT22;21562;49.476;6.086;2023-01-13T09:27:14;8.70;99.90
35445;DHT22;21562;49.476;6.086;2023-01-13T09:29:40;8.80;99.90
35445;DHT22;21562;49.476;6.086;2023-01-13T09:32:06;8.70;99.90
35445;DHT22;21562;49.476;6.086;2023-01-13T09:34:32;8.90;99.90
35445;DHT22;21562;49.476;6.086;2023-01-13T09:37:16;8.80;99.90
35445;DHT22;21562;49.476;6.086;2023-01-13T09:39:42;8.70;99.90
35445;DHT22;21562;49.476;6.086;2023-01-13T09:45:10;8.90;99.90
35445;DHT22;21562;49.476;6.086;2023-01-13T09:47:56;9.00;99.90
35445;DHT22;21562;49.476;6.086;2023-01-13T09:55:51;9.10;99.90
35445;DHT22;21562;49.476;6.086;2023-01-13T09:58:18;9.00;99.90
35445;DHT22;21562;49.476;6.086;2023-01-13T10:03:30;8.90;99.90
35445;DHT22;21562;49.476;6.086;2023-01-13T10:06:00;8.90;99.90
35445;DHT22;21562;49.476;6.086;2023-01-13T10:08:34;8.80;99.90
35445;DHT22;21562;49.476;6.086;2023-01-13T10:11:04;8.80;99.90
35445;DHT22;21562;49.476;6.086;2023-01-13T10:13:57;8.80;99.90
35445;DHT22;21562;49.476;6.086;2023-01-13T10:19:19;8.80;99.90
35445;DHT22;21562;49.476;6.086;2023-01-13T10:22:03;8.90;99.90
35445;DHT22;21562;49.476;6.086;2023-01-13T10:27:37;8.80;99.90
35445;DHT22;21562;49.476;6.086;2023-01-13T10:32:58;9.00;99.90
35445;DHT22;21562;49.476;6.086;2023-01-13T10:35:50;8.90;99.90
35445;DHT22;21562;49.476;6.086;2023-01-13T10:38:40;9.10;99.90
35445;DHT22;21562;49.476;6.086;2023-01-13T10:41:24;9.20;99.90
35445;DHT22;21562;49.476;6.086;2023-01-13T10:44:14;9.10;99.90
35445;DHT22;21562;49.476;6.086;2023-01-13T10:46:55;9.00;99.90
35445;DHT22;21562;49.476;6.086;2023-01-13T10:49:28;9.10;99.90
35445;DHT22;21562;49.476;6.086;2023-01-13T10:51:55;9.20;99.90
35445;DHT22;21562;49.476;6.086;2023-01-13T10:54:23;9.20;99.90
35445;DHT22;21562;49.476;6.086;2023-01-13T10:56:50;9.10;99.90
35445;DHT22;21562;49.476;6.086;2023-01-13T10:59:35;9.10;99.90
35445;DHT22;21562;49.476;6.086;2023-01-13T11:04:43;9.00;99.90
35445;DHT22;21562;49.476;6.086;2023-01-13T11:07:36;9.10;99.90
35445;DHT22;21562;49.476;6.086;2023-01-13T11:15:18;9.10;99.90
35445;DHT22;21562;49.476;6.086;2023-01-13T11:17:52;9.00;99.90
35445;DHT22;21562;49.476;6.086;2023-01-13T11:20:31;8.90;99.90
35445;DHT22;21562;49.476;6.086;2023-01-13T11:23:06;8.90;99.90
35445;DHT22;21562;49.476;6.086;2023-01-13T11:25:42;8.90;99.90
35445;DHT22;21562;49.476;6.086;2023-01-13T11:31:34;8.80;99.90
35445;DHT22;21562;49.476;6.086;2023-01-13T11:33:49;9.70;99.90
35445;DHT22;21562;49.476;6.086;2023-01-13T11:36:17;9.20;99.90
35445;DHT22;21562;49.476;6.086;2023-01-13T11:38:53;8.90;99.90
35445;DHT22;21562;49.476;6.086;2023-01-13T11:44:22;8.80;99.90
35445;DHT22;21562;49.476;6.086;2023-01-13T11:46:51;8.60;99.90
35445;DHT22;21562;49.476;6.086;2023-01-13T11:49:27;8.60;99.90
35445;DHT22;21562;49.476;6.086;2023-01-13T11:52:20;8.70;99.90
35445;DHT22;21562;49.476;6.086;2023-01-13T11:57:51;9.00;99.90
35445;DHT22;21562;49.476;6.086;2023-01-13T12:03:24;9.00;99.90
35445;DHT22;21562;49.476;6.086;2023-01-13T12:06:01;8.90;99.90
35445;DHT22;21562;49.476;6.086;2023-01-13T12:11:39;9.20;99.90
35445;DHT22;21562;49.476;6.086;2023-01-13T12:16:31;9.10;99.90
35445;DHT22;21562;49.476;6.086;2023-01-13T12:19:17;9.00;99.90
35445;DHT22;21562;49.476;6.086;2023-01-13T12:25:04;8.80;99.90
35445;DHT22;21562;49.476;6.086;2023-01-13T12:30:39;8.90;99.90
35445;DHT22;21562;49.476;6.086;2023-01-13T12:33:38;9.10;99.90
35445;DHT22;21562;49.476;6.086;2023-01-13T12:38:56;9.00;99.90
35445;DHT22;21562;49.476;6.086;2023-01-13T12:41:49;9.00;99.90
35445;DHT22;21562;49.476;6.086;2023-01-13T12:44:35;9.10;99.90
35445;DHT22;21562;49.476;6.086;2023-01-13T12:47:02;9.10;99.90
35445;DHT22;21562;49.476;6.086;2023-01-13T12:49:32;9.10;99.90
35445;DHT22;21562;49.476;6.086;2023-01-13T12:52:09;9.00;99.90
35445;DHT22;21562;49.476;6.086;2023-01-13T12:57:23;8.80;99.90
35445;DHT22;21562;49.476;6.086;2023-01-13T13:02:39;8.90;99.90
35445;DHT22;21562;49.476;6.086;2023-01-13T13:08:18;9.10;99.90
35445;DHT22;21562;49.476;6.086;2023-01-13T13:10:56;9.20;99.90
35445;DHT22;21562;49.476;6.086;2023-01-13T13:13:44;9.40;99.90
35445;DHT22;21562;49.476;6.086;2023-01-13T13:24:31;9.40;99.90
35445;DHT22;21562;49.476;6.086;2023-01-13T13:27:18;9.50;99.90
35445;DHT22;21562;49.476;6.086;2023-01-13T13:38:02;9.50;99.90
35445;DHT22;21562;49.476;6.086;2023-01-13T13:40:49;9.50;99.90
35445;DHT22;21562;49.476;6.086;2023-01-13T13:43:42;9.50;99.90
35445;DHT22;21562;49.476;6.086;2023-01-13T13:46:33;9.30;99.90
35445;DHT22;21562;49.476;6.086;2023-01-13T13:49:16;9.40;99.90
35445;DHT22;21562;49.476;6.086;2023-01-13T13:51:55;9.50;99.90
35445;DHT22;21562;49.476;6.086;2023-01-13T13:54:22;9.40;99.90
35445;DHT22;21562;49.476;6.086;2023-01-13T13:56:48;9.40;99.90
35445;DHT22;21562;49.476;6.086;2023-01-13T13:59:26;9.50;99.90
35445;DHT22;21562;49.476;6.086;2023-01-13T14:01:56;9.50;99.90
35445;DHT22;21562;49.476;6.086;2023-01-13T14:04:32;9.40;99.90
35445;DHT22;21562;49.476;6.086;2023-01-13T14:07:03;9.40;99.90
35445;DHT22;21562;49.476;6.086;2023-01-13T14:09:44;9.20;99.90
35445;DHT22;21562;49.476;6.086;2023-01-13T14:12:21;8.90;99.90
35445;DHT22;21562;49.476;6.086;2023-01-13T14:14:48;8.70;99.90
35445;DHT22;21562;49.476;6.086;2023-01-13T14:17:41;8.30;99.90
35445;DHT22;21562;49.476;6.086;2023-01-13T14:20:15;8.30;99.90
35445;DHT22;21562;49.476;6.086;2023-01-13T14:22:48;8.40;99.90
35445;DHT22;21562;49.476;6.086;2023-01-13T14:27:54;8.70;99.90
35445;DHT22;21562;49.476;6.086;2023-01-13T14:30:22;8.80;99.90
35445;DHT22;21562;49.476;6.086;2023-01-13T14:32:49;9.00;99.90
35445;DHT22;21562;49.476;6.086;2023-01-13T14:35:16;9.00;99.90
35445;DHT22;21562;49.476;6.086;2023-01-13T14:37:42;8.80;99.90
35445;DHT22;21562;49.476;6.086;2023-01-13T14:43:12;8.70;99.90
35445;DHT22;21562;49.476;6.086;2023-01-13T14:45:55;8.70;99.90
35445;DHT22;21562;49.476;6.086;2023-01-13T14:48:27;8.80;99.90
35445;DHT22;21562;49.476;6.086;2023-01-13T14:50:58;8.70;99.90
35445;DHT22;21562;49.476;6.086;2023-01-13T14:53:35;8.90;99.90
35445;DHT22;21562;49.476;6.086;2023-01-13T15:01:56;8.90;99.90
35445;DHT22;21562;49.476;6.086;2023-01-13T15:04:32;8.90;99.90
35445;DHT22;21562;49.476;6.086;2023-01-13T15:07:01;9.00;99.90
35445;DHT22;21562;49.476;6.086;2023-01-13T15:09:36;9.00;99.90
35445;DHT22;21562;49.476;6.086;2023-01-13T15:12:22;8.90;99.90
35445;DHT22;21562;49.476;6.086;2023-01-13T15:14:49;8.80;99.90
35445;DHT22;21562;49.476;6.086;2023-01-13T15:17:17;8.80;99.90
35445;DHT22;21562;49.476;6.086;2023-01-13T15:19:43;8.70;99.90
35445;DHT22;21562;49.476;6.086;2023-01-13T15:22:09;8.70;99.90
35445;DHT22;21562;49.476;6.086;2023-01-13T15:24:34;8.80;99.90
35445;DHT22;21562;49.476;6.086;2023-01-13T15:27:03;8.70;99.90
35445;DHT22;21562;49.476;6.086;2023-01-13T15:29:35;8.70;99.90
35445;DHT22;21562;49.476;6.086;2023-01-13T15:32:01;8.80;99.90
35445;DHT22;21562;49.476;6.086;2023-01-13T15:34:27;8.90;99.90
35445;DHT22;21562;49.476;6.086;2023-01-13T15:36:52;8.90;99.90
35445;DHT22;21562;49.476;6.086;2023-01-13T15:39:18;8.80;99.90
35445;DHT22;21562;49.476;6.086;2023-01-13T15:41:44;8.70;99.90
35445;DHT22;21562;49.476;6.086;2023-01-13T15:44:28;8.80;99.90
35445;DHT22;21562;49.476;6.086;2023-01-13T15:47:12;8.70;99.90
35445;DHT22;21562;49.476;6.086;2023-01-13T15:49:41;8.70;99.90
35445;DHT22;21562;49.476;6.086;2023-01-13T15:52:24;8.70;99.90
35445;DHT22;21562;49.476;6.086;2023-01-13T15:54:51;8.70;99.90
35445;DHT22;21562;49.476;6.086;2023-01-13T15:57:32;8.70;99.90
35445;DHT22;21562;49.476;6.086;2023-01-13T16:00:02;8.70;99.90
35445;DHT22;21562;49.476;6.086;2023-01-13T16:02:28;8.70;99.90
35445;DHT22;21562;49.476;6.086;2023-01-13T16:04:55;8.60;99.90
35445;DHT22;21562;49.476;6.086;2023-01-13T16:07:23;8.60;99.90
35445;DHT22;21562;49.476;6.086;2023-01-13T16:09:49;8.40;99.90
35445;DHT22;21562;49.476;6.086;2023-01-13T16:12:15;8.10;99.90
35445;DHT22;21562;49.476;6.086;2023-01-13T16:14:41;7.90;99.90
35445;DHT22;21562;49.476;6.086;2023-01-13T16:17:14;7.90;99.90
35445;DHT22;21562;49.476;6.086;2023-01-13T16:19:40;7.90;99.90
35445;DHT22;21562;49.476;6.086;2023-01-13T16:22:08;8.00;99.90
35445;DHT22;21562;49.476;6.086;2023-01-13T16:24:34;8.10;99.90
35445;DHT22;21562;49.476;6.086;2023-01-13T16:27:00;8.10;99.90
35445;DHT22;21562;49.476;6.086;2023-01-13T16:29:26;8.10;99.90
35445;DHT22;21562;49.476;6.086;2023-01-13T16:31:51;8.10;99.90
35445;DHT22;21562;49.476;6.086;2023-01-13T16:34:17;8.30;99.90
35445;DHT22;21562;49.476;6.086;2023-01-13T16:36:43;8.30;99.90
35445;DHT22;21562;49.476;6.086;2023-01-13T16:39:19;8.40;99.90
35445;DHT22;21562;49.476;6.086;2023-01-13T16:41:45;8.50;99.90
35445;DHT22;21562;49.476;6.086;2023-01-13T16:44:11;8.50;99.90
35445;DHT22;21562;49.476;6.086;2023-01-13T16:46:38;8.30;99.90
35445;DHT22;21562;49.476;6.086;2023-01-13T16:49:05;8.10;99.90
35445;DHT22;21562;49.476;6.086;2023-01-13T16:51:31;8.00;99.90
35445;DHT22;21562;49.476;6.086;2023-01-13T16:53:57;7.90;99.90
35445;DHT22;21562;49.476;6.086;2023-01-13T16:56:32;8.00;99.90
35445;DHT22;21562;49.476;6.086;2023-01-13T16:59:07;8.00;99.90
35445;DHT22;21562;49.476;6.086;2023-01-13T17:01:33;8.10;99.90
35445;DHT22;21562;49.476;6.086;2023-01-13T17:04:00;8.00;99.90
35445;DHT22;21562;49.476;6.086;2023-01-13T17:06:26;8.00;99.90
35445;DHT22;21562;49.476;6.086;2023-01-13T17:08:53;8.00;99.90
35445;DHT22;21562;49.476;6.086;2023-01-13T17:11:19;8.20;99.90
35445;DHT22;21562;49.476;6.086;2023-01-13T17:13:45;8.30;99.90
35445;DHT22;21562;49.476;6.086;2023-01-13T17:16:21;8.20;99.90
35445;DHT22;21562;49.476;6.086;2023-01-13T17:18:48;7.90;99.90
35445;DHT22;21562;49.476;6.086;2023-01-13T17:21:15;7.80;99.90
35445;DHT22;21562;49.476;6.086;2023-01-13T17:23:41;8.00;99.90
35445;DHT22;21562;49.476;6.086;2023-01-13T17:29:03;8.10;99.90
35445;DHT22;21562;49.476;6.086;2023-01-13T17:31:29;7.90;99.90
35445;DHT22;21562;49.476;6.086;2023-01-13T17:33:55;7.80;99.90
35445;DHT22;21562;49.476;6.086;2023-01-13T17:36:21;7.80;99.90
35445;DHT22;21562;49.476;6.086;2023-01-13T17:38:47;7.80;99.90
35445;DHT22;21562;49.476;6.086;2023-01-13T17:41:13;7.80;99.90
35445;DHT22;21562;49.476;6.086;2023-01-13T17:43:39;7.80;99.90
35445;DHT22;21562;49.476;6.086;2023-01-13T17:46:08;7.80;99.90
35445;DHT22;21562;49.476;6.086;2023-01-13T17:48:34;7.90;99.90
35445;DHT22;21562;49.476;6.086;2023-01-13T17:51:00;7.90;99.90
35445;DHT22;21562;49.476;6.086;2023-01-13T17:53:26;7.90;99.90
35445;DHT22;21562;49.476;6.086;2023-01-13T17:55:53;7.80;99.90
35445;DHT22;21562;49.476;6.086;2023-01-13T17:58:20;8.00;99.90
35445;DHT22;21562;49.476;6.086;2023-01-13T18:00:47;7.90;99.90
35445;DHT22;21562;49.476;6.086;2023-01-13T18:03:13;7.90;99.90
35445;DHT22;21562;49.476;6.086;2023-01-13T18:05:39;7.90;99.90
35445;DHT22;21562;49.476;6.086;2023-01-13T18:08:06;7.90;99.90
35445;DHT22;21562;49.476;6.086;2023-01-13T18:10:32;8.00;99.90
35445;DHT22;21562;49.476;6.086;2023-01-13T18:12:58;8.00;99.90
35445;DHT22;21562;49.476;6.086;2023-01-13T18:15:24;8.10;99.90
35445;DHT22;21562;49.476;6.086;2023-01-13T18:17:50;8.00;99.90
35445;DHT22;21562;49.476;6.086;2023-01-13T18:20:17;8.00;99.90
35445;DHT22;21562;49.476;6.086;2023-01-13T18:23:01;8.00;99.90
35445;DHT22;21562;49.476;6.086;2023-01-13T18:25:46;8.10;99.90